Newbrook, Canada
Current Conditions -  °F | °C
As of 5:00 PM on Sunday 25 Jan 2015 (Local Time) from CYED Reporting Station
Overcast Overcast  
Wind Chill: 41°   Ceiling: 9300
Heat Index: 46°   Visibility: 9mi
Dew Point: 25°   Wind: 12mph
Humidity: 43%   Direction: 280°W
Pressure: 29.78"   Gusts: NA
Location:  54.33°N, 112.95°W
Report Text: CYED 260000Z AUTO 28010KT 9SM OVC093 08/M04 A2978 RMK SLP103
Loading
Personal Weather Stations






























Interactive Weather Map New forecast layout! Learn more

10-Day Weather Forecast

Advertisements
Track Severe Weather on mobile